Chippewa Valley Regional Airport
KEAU : now visible

Airfield :











YOU CAN JOIN US ON...

 
LOGIN :

Register | Disclaimer

   EN    FR    IT 

 









Legend :    VFR   Marginal VFR   IFR   Intensive IFR   Very Intensive IFR
Visi :
Ceiling :
>= 8 km
>= 3000ft
5 to 8 km
1000 to 3000 ft
1500m to 5 km
500 to 1000 ft
800 to 1500m
200 to 500 ft
< 800m
< 200 ft
Symbols :   Thunderstorms  Fog  Heavy snow  Heavy precipitations  Wind > 20 kt







- Airport Elevation : 913 ft
- IATA code : EAU


KEAU - Chippewa Valley Regional

CURRENT METAR :
  • 181120Z 24011KT 10SM SCT010 SCT048 BKN110 21/19 A2970 RMK AO2 PK WND 11029/1101 LTG DSNT NE RAE12 P0000 T02060194

EXPIRED METARs :
  • 181054Z 06007G24KT 020V100 8SM -TSRA FEW055 SCT075 BKN100 21/19 A2970 RMK AO2 PK WND 16027/1044 WSHFT 1034 LTG DSNT NE AND SE TSE23B26E41B54 P0033
  • 181047Z 16016G27KT 8SM VCTS RA FEW060 SCT075 BKN100 21/19 A2972 RMK AO2 PK WND 16027/1044 LTG DSNT ALQDS TSE23B26E41 P0033 T02110194
  • 181032Z 24009KT 10SM -TSRA FEW027 SCT060 BKN075 21/19 A2981 RMK AO2 LTG DSNT ALQDS TSE23B26 P0030 T02110194
  • 181023Z AUTO 20010KT 10SM VCTS -RA SCT027 BKN050 OVC090 21/19 A2976 RMK AO2 LTG DSNT ALQDS TSE23 P0029 T02110194
  • 181006Z AUTO 17014G23KT 1 1/2SM +TSRA BR BKN023 OVC049 21/20 A2973 RMK AO2 VIS 1V3 LTG DSNT SE AND W AND NW P0027 T02110200
  • 180956Z AUTO 22012G21KT 3SM +TSRA BR FEW021 BKN049 OVC060 22/20 A2977 RMK AO2 LTG DSNT SW AND W RAB27E36B41 TSB47 PRESRR SLP075 P0015 T02170200
  • 180937Z AUTO 19011KT 10SM VCTS OVC055 23/19 A2972 RMK AO2 LTG DSNT S AND SW RAB27E36 P0000 T02280194
  • 180856Z AUTO 18008KT 10SM BKN050 BKN075 23/19 A2971 RMK AO2 LTG DSNT SE-SW SLP055 T02330189 58017

TAF KEAU
Valid from the 18 at 12:00 until the 19 at 12:00 UTC


181120Z 1812/1912 18005KT P6SM SCT020 BKN035 BKN080
FM181500 21006KT P6SM FEW035 SCT050
FM182200 23007KT P6SM VCTS SCT050CB
FM190200 22005KT P6SM VCSH SCT250
FM190900 23002KT 1/2SM FG BKN250
KZMP FIR / North America



MET'MAP, your aeronautical weather chart ! - Copyright ORBIFLY December 2007 - Disclaimer

ORBIFLY MET'MAP TEAM :

Programming & Development : Alexandra Zaïnal
Concept & Development : Baudouin d'Aumeries
Co-Development & Prog : Marc-Olivier Méhu
Technical & hardware support : Manuel Goepfert

Contact : metmap@orbifly.com




SOURCES & CREDITS :

   NOAA       Earth
Advisory